Roswell, Georgia
Current Conditions -  °F | °C
As of 11:53 AM on Friday 31 Oct 2014 (Local Time) from KPDK Reporting Station
Few Clouds Few Clouds  
Wind Chill: 60°   Ceiling: Unl
Heat Index: 60°   Visibility: 10mi
Dew Point: 42°   Wind: 3mph
Humidity: 51%   Direction: 300°WNW
Pressure: 29.93"   Gusts: NA
Location:  34.02°N, 84.36°W
Report Text: KPDK 311553Z 30003KT 10SM FEW100 16/06 A2993 RMK AO2 SLP138 T01560056
Loading
Personal Weather Stations






























Interactive Weather Map
Tropical Storm Tracking
New forecast layout! Learn more

10-Day Weather Forecast

Advertisements
Track Severe Weather on mobile